• Join FlightAware (Why Join?)
  • Login
  • US Flag 
01:51PM EDT


 

Airport Tracker/Info


-or-


 

Live Flight TrackerFlight Track Log ✈ GGN7280 ✈ 11-May-2013 ✈ CYYZ - KALB

Flight Track Log - Related Links

Times and Time Zones

All times are in EDT time to prevent confusion due to time zone crossing. See the GGN7280 flight status page for this flight to view local times or setup timezone preferences in your user account.

Time Position Orientation Groundspeed Altitude Reporting Facility
EDT Latitude Longitude Course Direction KTS MPH feet Rate Location/Type
09:34AM 43.6833 -79.6333 180° South 30 35 600  Level Toronto Center
09:35AM 43.6500 -79.6333 180° South 180 207 2,500 1,440 Climbing Toronto Center
09:36AM 43.5833 -79.6167 170° South 210 242 3,500 1,140 Climbing Toronto Center
09:37AM 43.5500 -79.5333 119° Southeast 210 242 4,800 1,080 Climbing Toronto Center
09:38AM 43.5333 -79.4667 109° East 230 265 5,700 900 Climbing Toronto Center
09:39AM 43.5167 -79.3833 105° East 240 276 6,700 1,140 Climbing Toronto Center
09:40AM 43.4969 -79.2697 103° East 234 269 8,700 1,380 Climbing Cleveland Center
09:41AM 43.4833 -79.2000 105° East 240 276 9,500 1,620 Climbing Toronto Center
09:42AM 43.4667 -79.1333 109° East 230 265 11,000 780 Climbing Toronto Center
09:43AM 43.4667 -79.0167 90° East 260 299 11,100 660 Climbing Toronto Center
09:44AM 43.4500 -78.9167 103° East 270 311 12,400 1,380 Climbing Toronto Center
09:45AM 43.4333 -78.8333 105° East 260 299 13,900 1,500 Climbing Toronto Center
09:46AM 43.4333 -78.7167 90° East 250 288 15,500 1,500 Climbing Toronto Center
09:47AM 43.4167 -78.6167 103° East 250 288 16,900 1,260 Climbing Toronto Center
09:47AM 43.4186 -78.6056 76° East 257 296 17,600 1,320 Climbing Cleveland Center
09:48AM 43.4067 -78.5086 100° East 257 296 19,100 1,440 Climbing Cleveland Center
09:49AM 43.3944 -78.4147 100° East 257 296 20,500 1,920 Climbing Cleveland Center
09:50AM 43.3819 -78.3097 99° East 252 290 23,000 1,140 Climbing Cleveland Center
09:51AM 43.3719 -78.2272 99° East 252 290 22,800 -60 Descending Cleveland Center
09:52AM 43.3594 -78.1219 99° East 258 297 22,900 60 Climbing Cleveland Center
09:53AM 43.3467 -78.0139 99° East 277 319 23,000  Climbing Cleveland Center
09:54AM 43.3336 -77.9003 99° East 289 333 23,000  Level Cleveland Center
09:55AM 43.3186 -77.7897 101° East 294 338 23,000  Level Cleveland Center
09:56AM 43.3031 -77.6706 100° East 294 338 23,000  Level Cleveland Center
09:57AM 43.2897 -77.5569 99° East 294 338 23,000  Level Cleveland Center
09:58AM 43.2744 -77.4467 101° East 294 338 23,000  Level Cleveland Center
10:00AM 43.2494 -77.2500 100° East 288 331 23,000  Level Boston Center
10:01AM 43.2333 -77.1667 105° East 300 345 23,000  Level Toronto Center
10:02AM 43.2167 -77.0500 101° East 290 334 23,000  Level Toronto Center
10:03AM 43.2000 -76.9333 101° East 290 334 23,000  Level Toronto Center
10:04AM 43.2000 -76.8500 90° East 290 334 23,100  Climbing Toronto Center
10:05AM 43.1833 -76.7333 101° East 280 322 23,000 -60 Descending Toronto Center
10:06AM 43.1500 -76.6167 111° Southeast 280 322 23,000  Level Toronto Center
10:07AM 43.1500 -76.5167 90° East 270 311 23,000  Level Toronto Center
10:08AM 43.1333 -76.4167 103° East 270 311 23,000 -60 Level Toronto Center
10:09AM 43.1247 -76.3094 96° East 276 318 22,900 -480 Descending Boston Center
10:10AM 43.1094 -76.2058 101° East 276 318 21,800 -1,140 Descending Boston Center
10:11AM 43.0942 -76.0942 101° East 286 329 20,700 -1,140 Descending Boston Center
10:12AM 43.0833 -75.9797 97° East 293 337 19,600 -900 Descending Boston Center
10:13AM 43.0636 -75.8706 104° East 293 337 19,000 -300 Descending Boston Center
10:14AM 43.0481 -75.7644 101° East 293 337 19,000 -120 Level Boston Center
10:15AM 43.0322 -75.6614 102° East 287 330 18,800 -780 Descending Boston Center
10:16AM 43.0250 -75.5503 95° East 287 330 17,500 -1,440 Descending Boston Center
10:17AM 43.0197 -75.4306 93° East 287 330 16,000 -1,380 Descending Boston Center
10:18AM 43.0142 -75.3281 94° East 282 325 14,800 -1,200 Descending Boston Center
10:19AM 43.0103 -75.2314 93° East 266 306 13,700 -900 Descending Boston Center
10:20AM 43.0086 -75.1289 91° East 266 306 13,000 -720 Descending Boston Center
10:22AM 43.0031 -75.0067 94° East 266 306 12,200 -720 Descending Boston Center
10:23AM 42.9989 -74.9044 93° East 266 306 11,500 -600 Descending Boston Center
10:23AM 42.9989 -74.8133 90° East 269 310 11,100 -240 Descending Boston Center
10:24AM 42.9942 -74.7367 95° East 270 311 11,100  Level Boston Center
10:25AM 42.9947 -74.7083 88° East 277 319 11,100 -120 Level Boston Center
10:25AM 42.9942 -74.6344 91° East 273 314 11,000 -240 Descending Boston Center
10:26AM 42.9906 -74.5975 98° East 271 312 10,900  Descending Boston Center
10:26AM 42.9711 -74.5314 112° Southeast 261 300 11,000 60 Climbing Boston Center
10:27AM 42.9672 -74.5172 111° Southeast 259 298 11,000 -240 Level Boston Center
10:27AM 42.9478 -74.4369 108° East 262 302 10,800 -420 Descending Boston Center
10:28AM 42.9461 -74.4058 94° East 264 304 10,600 -1,380 Descending Boston Center
10:28AM 42.9433 -74.3292 93° East 282 325 9,500 -1,320 Descending Boston Center
10:29AM 42.9436 -74.3150 88° East 271 312 9,300 -1,620 Descending Boston Center
10:29AM 42.9408 -74.2297 93° East 272 313 7,900 -1,800 Descending Boston Center
10:30AM 42.9369 -74.2014 101° East 271 312 7,500 -1,800 Descending Boston Center
10:30AM 42.9339 -74.1275 93° East 266 306 6,100 -1,620 Descending Boston Center
10:31AM 42.9342 -74.1106 89° East 271 312 5,900 -1,380 Descending Boston Center
10:32AM 42.9294 -73.9997 93° East 271 312 4,400 -1,320 Descending Boston Center
10:32AM 42.9306 -73.9317 89° East 257 296 3,600 -1,020 Descending Boston Center
10:33AM 42.9231 -73.8464 97° East 210 242 2,600 -780 Descending Boston Center
10:34AM 42.8797 -73.8142 151° Southeast 158 182 2,100 -420 Descending Boston Center
10:35AM 42.8339 -73.8103 176° South 146 168 1,800 -540 Descending Boston Center
10:36AM 42.7944 -73.8094 179° South 139 160 1,100 -720 Descending Boston Center
10:37AM 42.7631 -73.8089 179° South 115 132 400 -720 Descending Boston Center
10:40AM 42.7491 -73.8020 144° Southeast  Level Estimated